sensor_id;sensor_type;location;lat;lon;timestamp;P1;durP1;ratioP1;P2;durP2;ratioP2
16837;SDS011;19510;54.486;9.046;2022-11-20T07:42:00;4.47;;;2.27;;
16837;SDS011;19510;54.486;9.046;2022-11-20T07:44:31;3.47;;;2.50;;
16837;SDS011;19510;54.486;9.046;2022-11-20T07:46:57;4.73;;;3.17;;
16837;SDS011;19510;54.486;9.046;2022-11-20T07:49:25;5.40;;;3.23;;
16837;SDS011;19510;54.486;9.046;2022-11-20T07:51:51;2.93;;;2.50;;
16837;SDS011;19510;54.486;9.046;2022-11-20T07:54:19;4.23;;;2.60;;
16837;SDS011;19510;54.486;9.046;2022-11-20T07:56:45;4.53;;;2.80;;
16837;SDS011;19510;54.486;9.046;2022-11-20T07:59:11;7.07;;;3.90;;
16837;SDS011;19510;54.486;9.046;2022-11-20T08:01:37;6.07;;;3.43;;
16837;SDS011;19510;54.486;9.046;2022-11-20T08:04:03;6.67;;;3.00;;
16837;SDS011;19510;54.486;9.046;2022-11-20T08:06:29;5.80;;;3.50;;
16837;SDS011;19510;54.486;9.046;2022-11-20T08:08:55;6.30;;;4.30;;
16837;SDS011;19510;54.486;9.046;2022-11-20T08:11:21;6.03;;;3.80;;
16837;SDS011;19510;54.486;9.046;2022-11-20T08:14:05;6.23;;;3.63;;
16837;SDS011;19510;54.486;9.046;2022-11-20T08:16:37;5.93;;;2.90;;
16837;SDS011;19510;54.486;9.046;2022-11-20T08:19:07;4.70;;;3.00;;
16837;SDS011;19510;54.486;9.046;2022-11-20T08:21:32;4.67;;;3.13;;
16837;SDS011;19510;54.486;9.046;2022-11-20T08:24:01;6.43;;;3.77;;
16837;SDS011;19510;54.486;9.046;2022-11-20T08:33:06;9.83;;;5.60;;
16837;SDS011;19510;54.486;9.046;2022-11-20T08:35:34;7.37;;;4.10;;
16837;SDS011;19510;54.486;9.046;2022-11-20T08:38:01;5.37;;;3.50;;
16837;SDS011;19510;54.486;9.046;2022-11-20T08:40:30;5.43;;;2.97;;
16837;SDS011;19510;54.486;9.046;2022-11-20T08:42:56;10.73;;;2.97;;
16837;SDS011;19510;54.486;9.046;2022-11-20T08:45:22;3.77;;;3.23;;
16837;SDS011;19510;54.486;9.046;2022-11-20T08:47:48;4.63;;;2.93;;
16837;SDS011;19510;54.486;9.046;2022-11-20T08:50:17;2.77;;;2.27;;
16837;SDS011;19510;54.486;9.046;2022-11-20T08:52:43;3.47;;;2.30;;
16837;SDS011;19510;54.486;9.046;2022-11-20T08:55:10;3.23;;;1.93;;
16837;SDS011;19510;54.486;9.046;2022-11-20T08:57:36;3.20;;;1.93;;
16837;SDS011;19510;54.486;9.046;2022-11-20T09:00:06;2.70;;;2.33;;
16837;SDS011;19510;54.486;9.046;2022-11-20T09:02:32;3.57;;;2.60;;
16837;SDS011;19510;54.486;9.046;2022-11-20T09:04:58;3.87;;;2.73;;
16837;SDS011;19510;54.486;9.046;2022-11-20T09:07:24;2.73;;;2.27;;
16837;SDS011;19510;54.486;9.046;2022-11-20T09:09:50;3.20;;;2.40;;
16837;SDS011;19510;54.486;9.046;2022-11-20T09:12:16;5.17;;;2.80;;
16837;SDS011;19510;54.486;9.046;2022-11-20T09:14:43;3.70;;;2.50;;
16837;SDS011;19510;54.486;9.046;2022-11-20T09:17:10;3.97;;;3.00;;
16837;SDS011;19510;54.486;9.046;2022-11-20T09:19:38;3.13;;;2.30;;
16837;SDS011;19510;54.486;9.046;2022-11-20T09:22:05;5.30;;;3.30;;
16837;SDS011;19510;54.486;9.046;2022-11-20T09:24:30;5.17;;;2.77;;
16837;SDS011;19510;54.486;9.046;2022-11-20T09:26:56;3.60;;;2.23;;
16837;SDS011;19510;54.486;9.046;2022-11-20T09:29:22;3.90;;;2.30;;
16837;SDS011;19510;54.486;9.046;2022-11-20T09:31:47;3.00;;;2.50;;
16837;SDS011;19510;54.486;9.046;2022-11-20T09:34:13;3.20;;;2.60;;
16837;SDS011;19510;54.486;9.046;2022-11-20T09:36:39;5.53;;;2.30;;
16837;SDS011;19510;54.486;9.046;2022-11-20T09:39:04;3.47;;;2.37;;
16837;SDS011;19510;54.486;9.046;2022-11-20T09:46:47;3.77;;;2.80;;
16837;SDS011;19510;54.486;9.046;2022-11-20T09:54:55;4.73;;;2.00;;
16837;SDS011;19510;54.486;9.046;2022-11-20T09:57:23;2.73;;;1.77;;
16837;SDS011;19510;54.486;9.046;2022-11-20T09:59:56;3.67;;;2.40;;
16837;SDS011;19510;54.486;9.046;2022-11-20T10:02:30;3.00;;;2.17;;
16837;SDS011;19510;54.486;9.046;2022-11-20T10:05:04;2.03;;;1.60;;
16837;SDS011;19510;54.486;9.046;2022-11-20T10:07:37;2.77;;;1.97;;
16837;SDS011;19510;54.486;9.046;2022-11-20T10:10:24;2.97;;;2.10;;
16837;SDS011;19510;54.486;9.046;2022-11-20T10:21:28;2.50;;;2.30;;
16837;SDS011;19510;54.486;9.046;2022-11-20T10:29:45;2.80;;;2.10;;
16837;SDS011;19510;54.486;9.046;2022-11-20T10:32:19;3.90;;;2.00;;
16837;SDS011;19510;54.486;9.046;2022-11-20T10:37:24;2.40;;;1.70;;
16837;SDS011;19510;54.486;9.046;2022-11-20T10:42:31;2.10;;;1.70;;
16837;SDS011;19510;54.486;9.046;2022-11-20T10:45:01;1.87;;;1.53;;
16837;SDS011;19510;54.486;9.046;2022-11-20T10:47:38;1.60;;;1.50;;
16837;SDS011;19510;54.486;9.046;2022-11-20T10:50:04;1.90;;;1.47;;
16837;SDS011;19510;54.486;9.046;2022-11-20T11:00:30;2.57;;;1.67;;
16837;SDS011;19510;54.486;9.046;2022-11-20T11:02:56;5.07;;;2.80;;
16837;SDS011;19510;54.486;9.046;2022-11-20T11:08:18;2.50;;;1.80;;
16837;SDS011;19510;54.486;9.046;2022-11-20T11:10:49;1.90;;;1.40;;
16837;SDS011;19510;54.486;9.046;2022-11-20T11:13:28;1.50;;;1.40;;
16837;SDS011;19510;54.486;9.046;2022-11-20T11:15:54;1.70;;;1.30;;
16837;SDS011;19510;54.486;9.046;2022-11-20T11:18:25;3.00;;;1.60;;
16837;SDS011;19510;54.486;9.046;2022-11-20T11:20:53;4.53;;;1.70;;
16837;SDS011;19510;54.486;9.046;2022-11-20T11:26:02;2.13;;;1.50;;
16837;SDS011;19510;54.486;9.046;2022-11-20T11:28:31;2.17;;;1.57;;
16837;SDS011;19510;54.486;9.046;2022-11-20T11:30:57;2.83;;;1.40;;
16837;SDS011;19510;54.486;9.046;2022-11-20T11:33:25;2.90;;;1.67;;
16837;SDS011;19510;54.486;9.046;2022-11-20T11:38:34;1.57;;;1.30;;
16837;SDS011;19510;54.486;9.046;2022-11-20T11:41:03;1.27;;;1.17;;
16837;SDS011;19510;54.486;9.046;2022-11-20T11:43:32;1.00;;;0.90;;
16837;SDS011;19510;54.486;9.046;2022-11-20T11:51:36;1.30;;;1.00;;
16837;SDS011;19510;54.486;9.046;2022-11-20T11:54:17;1.03;;;0.93;;
16837;SDS011;19510;54.486;9.046;2022-11-20T11:57:08;0.97;;;0.97;;
16837;SDS011;19510;54.486;9.046;2022-11-20T12:02:38;1.10;;;0.90;;
16837;SDS011;19510;54.486;9.046;2022-11-20T12:05:19;1.57;;;0.80;;
16837;SDS011;19510;54.486;9.046;2022-11-20T12:08:20;1.47;;;0.93;;
16837;SDS011;19510;54.486;9.046;2022-11-20T12:10:56;1.03;;;0.90;;
16837;SDS011;19510;54.486;9.046;2022-11-20T12:15:58;1.63;;;0.90;;
16837;SDS011;19510;54.486;9.046;2022-11-20T12:18:25;1.17;;;0.90;;
16837;SDS011;19510;54.486;9.046;2022-11-20T12:21:09;2.73;;;1.50;;
16837;SDS011;19510;54.486;9.046;2022-11-20T12:34:34;1.30;;;1.10;;
16837;SDS011;19510;54.486;9.046;2022-11-20T12:40:34;2.10;;;1.17;;
16837;SDS011;19510;54.486;9.046;2022-11-20T12:43:16;0.97;;;0.93;;
16837;SDS011;19510;54.486;9.046;2022-11-20T12:46:22;1.30;;;1.07;;
16837;SDS011;19510;54.486;9.046;2022-11-20T12:51:50;1.57;;;1.33;;
16837;SDS011;19510;54.486;9.046;2022-11-20T13:00:34;1.73;;;1.30;;
16837;SDS011;19510;54.486;9.046;2022-11-20T13:08:36;1.30;;;1.20;;
16837;SDS011;19510;54.486;9.046;2022-11-20T13:13:56;1.87;;;1.30;;
16837;SDS011;19510;54.486;9.046;2022-11-20T13:16:29;1.30;;;1.20;;
16837;SDS011;19510;54.486;9.046;2022-11-20T13:19:14;1.73;;;1.27;;
16837;SDS011;19510;54.486;9.046;2022-11-20T13:21:47;1.30;;;1.20;;
16837;SDS011;19510;54.486;9.046;2022-11-20T13:26:48;2.47;;;1.10;;
16837;SDS011;19510;54.486;9.046;2022-11-20T13:29:28;2.13;;;1.43;;
16837;SDS011;19510;54.486;9.046;2022-11-20T13:32:28;1.67;;;1.37;;
16837;SDS011;19510;54.486;9.046;2022-11-20T13:34:54;1.87;;;1.27;;
16837;SDS011;19510;54.486;9.046;2022-11-20T13:37:33;1.27;;;1.10;;
16837;SDS011;19510;54.486;9.046;2022-11-20T13:42:35;1.20;;;1.10;;
16837;SDS011;19510;54.486;9.046;2022-11-20T13:45:08;1.57;;;1.27;;
16837;SDS011;19510;54.486;9.046;2022-11-20T13:47:36;2.07;;;1.70;;
16837;SDS011;19510;54.486;9.046;2022-11-20T13:50:03;3.40;;;1.40;;
16837;SDS011;19510;54.486;9.046;2022-11-20T13:52:45;1.30;;;1.20;;
16837;SDS011;19510;54.486;9.046;2022-11-20T14:00:57;4.93;;;1.40;;
16837;SDS011;19510;54.486;9.046;2022-11-20T14:03:26;2.20;;;1.50;;
16837;SDS011;19510;54.486;9.046;2022-11-20T14:06:05;1.67;;;1.40;;
16837;SDS011;19510;54.486;9.046;2022-11-20T14:08:47;1.90;;;1.27;;
16837;SDS011;19510;54.486;9.046;2022-11-20T14:16:46;2.43;;;1.87;;
16837;SDS011;19510;54.486;9.046;2022-11-20T14:21:45;2.63;;;1.97;;
16837;SDS011;19510;54.486;9.046;2022-11-20T14:24:12;2.57;;;1.50;;
16837;SDS011;19510;54.486;9.046;2022-11-20T14:26:41;4.50;;;1.60;;
16837;SDS011;19510;54.486;9.046;2022-11-20T14:29:28;5.53;;;1.80;;
16837;SDS011;19510;54.486;9.046;2022-11-20T14:31:58;2.13;;;1.37;;
16837;SDS011;19510;54.486;9.046;2022-11-20T14:34:27;2.27;;;1.30;;
16837;SDS011;19510;54.486;9.046;2022-11-20T14:37:05;2.93;;;1.83;;
16837;SDS011;19510;54.486;9.046;2022-11-20T14:39:37;1.87;;;1.67;;
16837;SDS011;19510;54.486;9.046;2022-11-20T14:42:16;1.80;;;1.70;;
16837;SDS011;19510;54.486;9.046;2022-11-20T14:44:50;1.70;;;1.60;;
16837;SDS011;19510;54.486;9.046;2022-11-20T14:47:35;2.27;;;1.80;;
16837;SDS011;19510;54.486;9.046;2022-11-20T14:50:01;3.87;;;2.03;;
16837;SDS011;19510;54.486;9.046;2022-11-20T14:52:27;2.73;;;2.13;;
16837;SDS011;19510;54.486;9.046;2022-11-20T14:54:57;3.90;;;2.63;;
16837;SDS011;19510;54.486;9.046;2022-11-20T15:02:46;3.90;;;2.17;;
16837;SDS011;19510;54.486;9.046;2022-11-20T15:05:18;2.60;;;1.80;;
16837;SDS011;19510;54.486;9.046;2022-11-20T15:07:47;2.07;;;1.73;;
16837;SDS011;19510;54.486;9.046;2022-11-20T15:12:55;4.27;;;2.53;;
16837;SDS011;19510;54.486;9.046;2022-11-20T15:18:01;4.40;;;2.40;;
16837;SDS011;19510;54.486;9.046;2022-11-20T15:20:29;4.27;;;2.57;;
16837;SDS011;19510;54.486;9.046;2022-11-20T15:22:59;4.67;;;2.87;;
16837;SDS011;19510;54.486;9.046;2022-11-20T15:25:25;3.37;;;2.90;;
16837;SDS011;19510;54.486;9.046;2022-11-20T15:27:52;7.40;;;3.13;;
16837;SDS011;19510;54.486;9.046;2022-11-20T15:30:21;4.47;;;2.50;;
16837;SDS011;19510;54.486;9.046;2022-11-20T15:32:48;4.60;;;3.17;;
16837;SDS011;19510;54.486;9.046;2022-11-20T15:35:14;6.37;;;2.87;;
16837;SDS011;19510;54.486;9.046;2022-11-20T15:37:40;7.40;;;2.83;;
16837;SDS011;19510;54.486;9.046;2022-11-20T15:40:06;4.60;;;2.90;;
16837;SDS011;19510;54.486;9.046;2022-11-20T15:42:33;6.13;;;3.30;;
16837;SDS011;19510;54.486;9.046;2022-11-20T15:44:59;6.70;;;4.40;;
16837;SDS011;19510;54.486;9.046;2022-11-20T15:47:29;5.40;;;3.70;;
16837;SDS011;19510;54.486;9.046;2022-11-20T15:49:58;6.77;;;4.07;;
16837;SDS011;19510;54.486;9.046;2022-11-20T15:52:24;7.33;;;4.27;;
16837;SDS011;19510;54.486;9.046;2022-11-20T15:54:52;6.33;;;4.07;;
16837;SDS011;19510;54.486;9.046;2022-11-20T15:57:18;8.53;;;5.07;;
16837;SDS011;19510;54.486;9.046;2022-11-20T15:59:46;9.70;;;5.37;;
16837;SDS011;19510;54.486;9.046;2022-11-20T16:02:14;10.70;;;5.37;;
16837;SDS011;19510;54.486;9.046;2022-11-20T16:04:41;9.50;;;5.30;;
16837;SDS011;19510;54.486;9.046;2022-11-20T16:07:09;9.87;;;5.23;;
16837;SDS011;19510;54.486;9.046;2022-11-20T16:09:37;5.73;;;3.93;;
16837;SDS011;19510;54.486;9.046;2022-11-20T16:12:04;5.63;;;3.37;;
16837;SDS011;19510;54.486;9.046;2022-11-20T16:14:29;7.67;;;4.10;;
16837;SDS011;19510;54.486;9.046;2022-11-20T16:17:16;6.27;;;3.53;;
16837;SDS011;19510;54.486;9.046;2022-11-20T16:20:02;10.30;;;5.47;;
16837;SDS011;19510;54.486;9.046;2022-11-20T16:22:28;12.93;;;6.57;;
16837;SDS011;19510;54.486;9.046;2022-11-20T16:24:54;13.37;;;6.67;;
16837;SDS011;19510;54.486;9.046;2022-11-20T16:27:19;19.17;;;9.73;;
16837;SDS011;19510;54.486;9.046;2022-11-20T16:29:45;15.40;;;9.03;;
16837;SDS011;19510;54.486;9.046;2022-11-20T16:32:12;20.03;;;11.37;;
16837;SDS011;19510;54.486;9.046;2022-11-20T16:34:38;19.30;;;10.83;;
16837;SDS011;19510;54.486;9.046;2022-11-20T16:37:03;19.93;;;11.30;;
16837;SDS011;19510;54.486;9.046;2022-11-20T16:39:32;17.50;;;10.43;;
16837;SDS011;19510;54.486;9.046;2022-11-20T16:41:57;16.53;;;10.40;;
16837;SDS011;19510;54.486;9.046;2022-11-20T16:44:23;21.67;;;10.87;;
16837;SDS011;19510;54.486;9.046;2022-11-20T16:46:49;19.77;;;11.20;;
16837;SDS011;19510;54.486;9.046;2022-11-20T16:49:18;21.60;;;11.17;;
16837;SDS011;19510;54.486;9.046;2022-11-20T16:51:48;17.30;;;9.97;;
16837;SDS011;19510;54.486;9.046;2022-11-20T16:54:17;18.43;;;9.57;;
16837;SDS011;19510;54.486;9.046;2022-11-20T16:56:43;14.03;;;8.73;;
16837;SDS011;19510;54.486;9.046;2022-11-20T16:59:12;13.90;;;7.80;;
16837;SDS011;19510;54.486;9.046;2022-11-20T17:01:38;12.00;;;6.50;;
16837;SDS011;19510;54.486;9.046;2022-11-20T17:04:05;10.33;;;6.90;;
16837;SDS011;19510;54.486;9.046;2022-11-20T17:06:33;10.07;;;6.30;;
16837;SDS011;19510;54.486;9.046;2022-11-20T17:09:04;13.83;;;7.10;;
16837;SDS011;19510;54.486;9.046;2022-11-20T17:11:33;12.20;;;6.90;;
16837;SDS011;19510;54.486;9.046;2022-11-20T17:14:00;13.67;;;6.50;;
16837;SDS011;19510;54.486;9.046;2022-11-20T17:16:27;13.47;;;6.63;;
16837;SDS011;19510;54.486;9.046;2022-11-20T17:18:54;10.33;;;5.80;;
16837;SDS011;19510;54.486;9.046;2022-11-20T17:21:21;9.40;;;6.10;;
16837;SDS011;19510;54.486;9.046;2022-11-20T17:23:47;10.73;;;6.30;;
16837;SDS011;19510;54.486;9.046;2022-11-20T17:28:51;9.90;;;6.17;;
16837;SDS011;19510;54.486;9.046;2022-11-20T17:31:18;10.63;;;7.03;;
16837;SDS011;19510;54.486;9.046;2022-11-20T17:33:45;12.83;;;8.07;;
16837;SDS011;19510;54.486;9.046;2022-11-20T17:36:12;11.20;;;6.13;;
16837;SDS011;19510;54.486;9.046;2022-11-20T17:38:39;8.97;;;5.53;;
16837;SDS011;19510;54.486;9.046;2022-11-20T17:41:06;16.60;;;6.67;;
16837;SDS011;19510;54.486;9.046;2022-11-20T17:43:34;10.47;;;6.03;;
16837;SDS011;19510;54.486;9.046;2022-11-20T17:46:06;11.27;;;6.33;;
16837;SDS011;19510;54.486;9.046;2022-11-20T17:48:36;10.70;;;6.50;;
16837;SDS011;19510;54.486;9.046;2022-11-20T17:51:06;15.93;;;8.10;;
16837;SDS011;19510;54.486;9.046;2022-11-20T17:53:36;15.17;;;8.27;;
16837;SDS011;19510;54.486;9.046;2022-11-20T17:56:03;16.30;;;8.70;;
16837;SDS011;19510;54.486;9.046;2022-11-20T17:58:48;21.73;;;8.80;;
16837;SDS011;19510;54.486;9.046;2022-11-20T18:01:14;14.10;;;7.80;;
16837;SDS011;19510;54.486;9.046;2022-11-20T18:03:41;22.30;;;9.20;;
16837;SDS011;19510;54.486;9.046;2022-11-20T18:06:17;17.07;;;8.87;;
16837;SDS011;19510;54.486;9.046;2022-11-20T18:08:44;16.63;;;8.83;;
16837;SDS011;19510;54.486;9.046;2022-11-20T18:11:12;17.77;;;8.73;;
16837;SDS011;19510;54.486;9.046;2022-11-20T18:13:45;16.40;;;8.43;;
16837;SDS011;19510;54.486;9.046;2022-11-20T18:16:32;14.73;;;7.90;;
16837;SDS011;19510;54.486;9.046;2022-11-20T18:18:59;13.53;;;7.97;;
16837;SDS011;19510;54.486;9.046;2022-11-20T18:21:26;13.73;;;8.77;;
16837;SDS011;19510;54.486;9.046;2022-11-20T18:23:53;15.40;;;8.93;;
16837;SDS011;19510;54.486;9.046;2022-11-20T18:26:20;14.90;;;8.70;;
16837;SDS011;19510;54.486;9.046;2022-11-20T18:28:46;16.43;;;8.33;;
16837;SDS011;19510;54.486;9.046;2022-11-20T18:31:12;16.80;;;8.87;;
16837;SDS011;19510;54.486;9.046;2022-11-20T18:33:38;13.20;;;8.10;;
16837;SDS011;19510;54.486;9.046;2022-11-20T18:36:10;12.87;;;7.80;;
16837;SDS011;19510;54.486;9.046;2022-11-20T18:38:44;14.40;;;8.20;;
16837;SDS011;19510;54.486;9.046;2022-11-20T18:41:13;15.03;;;8.67;;
16837;SDS011;19510;54.486;9.046;2022-11-20T18:43:59;14.10;;;8.47;;
16837;SDS011;19510;54.486;9.046;2022-11-20T18:46:44;12.53;;;8.13;;
16837;SDS011;19510;54.486;9.046;2022-11-20T18:49:11;15.33;;;8.47;;
16837;SDS011;19510;54.486;9.046;2022-11-20T18:51:37;13.73;;;8.70;;
16837;SDS011;19510;54.486;9.046;2022-11-20T18:54:08;15.77;;;9.43;;
16837;SDS011;19510;54.486;9.046;2022-11-20T18:56:34;14.60;;;9.30;;
16837;SDS011;19510;54.486;9.046;2022-11-20T18:59:01;13.57;;;8.50;;
16837;SDS011;19510;54.486;9.046;2022-11-20T19:01:27;15.43;;;9.13;;
16837;SDS011;19510;54.486;9.046;2022-11-20T19:03:53;14.43;;;9.10;;
16837;SDS011;19510;54.486;9.046;2022-11-20T19:06:19;16.73;;;9.67;;
16837;SDS011;19510;54.486;9.046;2022-11-20T19:08:45;17.17;;;10.20;;
16837;SDS011;19510;54.486;9.046;2022-11-20T19:12:00;18.30;;;10.17;;
16837;SDS011;19510;54.486;9.046;2022-11-20T19:14:26;18.67;;;9.87;;
16837;SDS011;19510;54.486;9.046;2022-11-20T19:16:52;15.27;;;9.70;;
16837;SDS011;19510;54.486;9.046;2022-11-20T19:19:18;19.27;;;10.17;;
16837;SDS011;19510;54.486;9.046;2022-11-20T19:21:43;15.83;;;9.33;;
16837;SDS011;19510;54.486;9.046;2022-11-20T19:24:09;19.10;;;10.90;;
16837;SDS011;19510;54.486;9.046;2022-11-20T19:26:35;16.97;;;10.03;;
16837;SDS011;19510;54.486;9.046;2022-11-20T19:29:04;17.70;;;11.13;;
16837;SDS011;19510;54.486;9.046;2022-11-20T19:31:33;18.90;;;11.87;;
16837;SDS011;19510;54.486;9.046;2022-11-20T19:34:00;21.47;;;12.13;;
16837;SDS011;19510;54.486;9.046;2022-11-20T19:36:28;21.77;;;11.00;;
16837;SDS011;19510;54.486;9.046;2022-11-20T19:38:56;21.83;;;10.30;;
16837;SDS011;19510;54.486;9.046;2022-11-20T19:41:23;20.00;;;10.33;;
16837;SDS011;19510;54.486;9.046;2022-11-20T19:44:14;17.17;;;9.37;;
16837;SDS011;19510;54.486;9.046;2022-11-20T19:46:40;16.17;;;9.03;;
16837;SDS011;19510;54.486;9.046;2022-11-20T19:49:07;18.07;;;10.03;;
16837;SDS011;19510;54.486;9.046;2022-11-20T19:51:38;16.67;;;9.30;;
16837;SDS011;19510;54.486;9.046;2022-11-20T19:54:09;15.40;;;9.40;;
16837;SDS011;19510;54.486;9.046;2022-11-20T19:56:35;14.63;;;8.53;;
16837;SDS011;19510;54.486;9.046;2022-11-20T19:59:00;14.10;;;7.73;;
16837;SDS011;19510;54.486;9.046;2022-11-20T20:01:27;15.47;;;7.97;;
16837;SDS011;19510;54.486;9.046;2022-11-20T20:03:54;12.70;;;7.47;;
16837;SDS011;19510;54.486;9.046;2022-11-20T20:06:25;12.57;;;7.57;;
16837;SDS011;19510;54.486;9.046;2022-11-20T20:08:56;12.80;;;7.43;;
16837;SDS011;19510;54.486;9.046;2022-11-20T20:11:24;11.17;;;6.30;;
16837;SDS011;19510;54.486;9.046;2022-11-20T20:13:51;12.70;;;6.93;;
16837;SDS011;19510;54.486;9.046;2022-11-20T20:16:20;12.37;;;7.30;;
16837;SDS011;19510;54.486;9.046;2022-11-20T20:18:47;15.80;;;7.93;;
16837;SDS011;19510;54.486;9.046;2022-11-20T20:21:16;12.90;;;7.77;;
16837;SDS011;19510;54.486;9.046;2022-11-20T20:23:44;11.27;;;6.47;;
16837;SDS011;19510;54.486;9.046;2022-11-20T20:26:13;10.23;;;6.63;;
16837;SDS011;19510;54.486;9.046;2022-11-20T20:28:41;13.70;;;7.20;;
16837;SDS011;19510;54.486;9.046;2022-11-20T20:31:07;11.47;;;6.67;;
16837;SDS011;19510;54.486;9.046;2022-11-20T20:33:37;13.20;;;7.30;;
16837;SDS011;19510;54.486;9.046;2022-11-20T20:36:04;11.87;;;6.93;;
16837;SDS011;19510;54.486;9.046;2022-11-20T20:38:31;14.03;;;6.30;;
16837;SDS011;19510;54.486;9.046;2022-11-20T20:40:57;9.07;;;6.10;;
16837;SDS011;19510;54.486;9.046;2022-11-20T20:43:27;15.47;;;6.30;;
16837;SDS011;19510;54.486;9.046;2022-11-20T20:45:55;15.13;;;7.90;;
16837;SDS011;19510;54.486;9.046;2022-11-20T20:48:24;12.83;;;7.50;;
16837;SDS011;19510;54.486;9.046;2022-11-20T20:50:55;12.50;;;7.23;;
16837;SDS011;19510;54.486;9.046;2022-11-20T20:53:23;11.80;;;6.60;;
16837;SDS011;19510;54.486;9.046;2022-11-20T20:55:53;11.70;;;6.43;;
16837;SDS011;19510;54.486;9.046;2022-11-20T20:58:19;12.07;;;7.47;;
16837;SDS011;19510;54.486;9.046;2022-11-20T21:00:45;14.13;;;8.20;;
16837;SDS011;19510;54.486;9.046;2022-11-20T21:03:11;18.33;;;9.17;;
16837;SDS011;19510;54.486;9.046;2022-11-20T21:05:36;14.77;;;9.03;;
16837;SDS011;19510;54.486;9.046;2022-11-20T21:08:02;17.57;;;9.63;;
16837;SDS011;19510;54.486;9.046;2022-11-20T21:10:45;16.20;;;8.37;;
16837;SDS011;19510;54.486;9.046;2022-11-20T21:13:11;14.00;;;8.23;;
16837;SDS011;19510;54.486;9.046;2022-11-20T21:15:39;15.97;;;8.50;;
16837;SDS011;19510;54.486;9.046;2022-11-20T21:18:05;19.23;;;8.37;;
16837;SDS011;19510;54.486;9.046;2022-11-20T21:20:34;16.07;;;7.97;;
16837;SDS011;19510;54.486;9.046;2022-11-20T21:23:18;16.60;;;7.93;;
16837;SDS011;19510;54.486;9.046;2022-11-20T21:25:43;14.60;;;6.97;;
16837;SDS011;19510;54.486;9.046;2022-11-20T21:28:09;12.47;;;6.27;;
16837;SDS011;19510;54.486;9.046;2022-11-20T21:30:35;11.27;;;6.20;;
16837;SDS011;19510;54.486;9.046;2022-11-20T21:33:03;13.17;;;6.80;;
16837;SDS011;19510;54.486;9.046;2022-11-20T21:35:34;16.53;;;8.00;;
16837;SDS011;19510;54.486;9.046;2022-11-20T21:38:03;14.77;;;7.40;;
16837;SDS011;19510;54.486;9.046;2022-11-20T21:40:31;17.17;;;7.67;;
16837;SDS011;19510;54.486;9.046;2022-11-20T21:42:57;16.87;;;7.73;;
16837;SDS011;19510;54.486;9.046;2022-11-20T21:45:22;13.90;;;6.70;;
16837;SDS011;19510;54.486;9.046;2022-11-20T21:47:48;13.53;;;6.90;;
16837;SDS011;19510;54.486;9.046;2022-11-20T21:50:15;13.33;;;6.63;;
16837;SDS011;19510;54.486;9.046;2022-11-20T21:52:43;15.73;;;7.87;;
16837;SDS011;19510;54.486;9.046;2022-11-20T21:55:11;13.97;;;7.73;;
16837;SDS011;19510;54.486;9.046;2022-11-20T21:57:37;14.50;;;6.90;;
16837;SDS011;19510;54.486;9.046;2022-11-20T22:00:03;12.90;;;7.33;;
16837;SDS011;19510;54.486;9.046;2022-11-20T22:02:29;14.80;;;6.47;;
16837;SDS011;19510;54.486;9.046;2022-11-20T22:04:55;11.90;;;6.73;;
16837;SDS011;19510;54.486;9.046;2022-11-20T22:07:20;9.50;;;6.13;;
16837;SDS011;19510;54.486;9.046;2022-11-20T22:09:46;10.97;;;6.40;;
16837;SDS011;19510;54.486;9.046;2022-11-20T22:12:11;12.47;;;6.13;;
16837;SDS011;19510;54.486;9.046;2022-11-20T22:14:37;10.07;;;6.00;;
16837;SDS011;19510;54.486;9.046;2022-11-20T22:17:05;11.47;;;6.63;;
16837;SDS011;19510;54.486;9.046;2022-11-20T22:19:40;13.03;;;5.90;;
16837;SDS011;19510;54.486;9.046;2022-11-20T22:22:06;10.73;;;6.47;;
16837;SDS011;19510;54.486;9.046;2022-11-20T22:24:33;12.13;;;6.67;;
16837;SDS011;19510;54.486;9.046;2022-11-20T22:26:59;13.87;;;6.80;;
16837;SDS011;19510;54.486;9.046;2022-11-20T22:29:25;13.17;;;6.27;;
16837;SDS011;19510;54.486;9.046;2022-11-20T22:31:51;12.40;;;6.70;;
16837;SDS011;19510;54.486;9.046;2022-11-20T22:34:17;10.67;;;6.63;;
16837;SDS011;19510;54.486;9.046;2022-11-20T22:36:42;11.97;;;6.40;;
16837;SDS011;19510;54.486;9.046;2022-11-20T22:39:08;10.33;;;6.60;;
16837;SDS011;19510;54.486;9.046;2022-11-20T22:41:34;14.67;;;6.17;;
16837;SDS011;19510;54.486;9.046;2022-11-20T22:44:04;14.97;;;6.07;;
16837;SDS011;19510;54.486;9.046;2022-11-20T22:46:32;13.57;;;6.77;;
16837;SDS011;19510;54.486;9.046;2022-11-20T22:49:00;16.43;;;7.27;;
16837;SDS011;19510;54.486;9.046;2022-11-20T22:51:29;14.43;;;6.87;;
16837;SDS011;19510;54.486;9.046;2022-11-20T22:53:56;14.60;;;6.80;;
16837;SDS011;19510;54.486;9.046;2022-11-20T22:56:21;21.13;;;7.93;;
16837;SDS011;19510;54.486;9.046;2022-11-20T22:58:48;18.20;;;7.07;;
16837;SDS011;19510;54.486;9.046;2022-11-20T23:03:48;24.40;;;7.43;;
16837;SDS011;19510;54.486;9.046;2022-11-20T23:06:20;17.60;;;7.07;;
16837;SDS011;19510;54.486;9.046;2022-11-20T23:08:49;13.80;;;6.80;;
16837;SDS011;19510;54.486;9.046;2022-11-20T23:11:16;19.30;;;7.50;;
16837;SDS011;19510;54.486;9.046;2022-11-20T23:13:50;14.97;;;6.73;;
16837;SDS011;19510;54.486;9.046;2022-11-20T23:16:22;14.53;;;7.13;;
16837;SDS011;19510;54.486;9.046;2022-11-20T23:18:58;14.73;;;7.53;;
16837;SDS011;19510;54.486;9.046;2022-11-20T23:21:25;19.93;;;7.30;;
16837;SDS011;19510;54.486;9.046;2022-11-20T23:23:54;15.30;;;7.90;;
16837;SDS011;19510;54.486;9.046;2022-11-20T23:26:21;19.07;;;6.37;;
16837;SDS011;19510;54.486;9.046;2022-11-20T23:28:48;15.30;;;6.57;;
16837;SDS011;19510;54.486;9.046;2022-11-20T23:31:17;12.53;;;6.10;;
16837;SDS011;19510;54.486;9.046;2022-11-20T23:33:45;9.33;;;5.37;;
16837;SDS011;19510;54.486;9.046;2022-11-20T23:36:13;9.50;;;5.00;;
16837;SDS011;19510;54.486;9.046;2022-11-20T23:38:39;9.73;;;5.60;;
16837;SDS011;19510;54.486;9.046;2022-11-20T23:41:05;10.57;;;5.53;;
16837;SDS011;19510;54.486;9.046;2022-11-20T23:43:31;9.73;;;5.17;;
16837;SDS011;19510;54.486;9.046;2022-11-20T23:45:58;8.20;;;4.90;;
16837;SDS011;19510;54.486;9.046;2022-11-20T23:48:28;8.50;;;4.83;;
16837;SDS011;19510;54.486;9.046;2022-11-20T23:50:55;11.20;;;5.50;;
16837;SDS011;19510;54.486;9.046;2022-11-20T23:53:22;9.97;;;5.70;;
16837;SDS011;19510;54.486;9.046;2022-11-20T23:55:54;8.67;;;5.17;;
16837;SDS011;19510;54.486;9.046;2022-11-20T23:58:22;8.43;;;4.77;;
